createdAt,value
2018-04-13T00:02:11.556Z,11.23
2018-04-13T00:06:14.400Z,11.10
2018-04-13T00:10:17.177Z,11.00
2018-04-13T00:14:19.997Z,12.23
2018-04-13T00:18:22.872Z,11.00
2018-04-13T00:22:25.669Z,12.23
2018-04-13T00:26:28.409Z,12.10
2018-04-13T00:30:31.166Z,18.90
2018-04-13T00:34:34.769Z,20.77
2018-04-13T00:38:37.499Z,19.00
2018-04-13T00:42:40.325Z,20.80
2018-04-13T00:46:43.939Z,16.47
2018-04-13T00:50:47.510Z,16.50
2018-04-13T00:54:50.238Z,19.37
2018-04-13T00:58:53.044Z,20.97
2018-04-13T01:02:55.784Z,23.50
2018-04-13T01:06:58.623Z,22.60
2018-04-13T01:11:01.360Z,23.60
2018-04-13T01:15:04.186Z,16.80
2018-04-13T01:19:06.925Z,20.10
2018-04-13T01:23:09.745Z,16.43
2018-04-13T01:27:13.309Z,20.00
2018-04-13T01:31:16.174Z,18.20
2018-04-13T01:35:19.157Z,19.97
2018-04-13T01:39:22.682Z,20.10
2018-04-13T01:43:26.298Z,20.63
2018-04-13T01:47:29.191Z,25.80
2018-04-13T01:51:32.106Z,16.77
2018-04-13T01:55:34.992Z,20.10
2018-04-13T01:59:38.488Z,19.00
2018-04-13T02:03:41.421Z,16.67
2018-04-13T02:07:44.175Z,17.13
2018-04-13T02:11:47.066Z,21.77
2018-04-13T02:15:49.850Z,23.70
2018-04-13T02:19:52.848Z,28.13
2018-04-13T02:23:55.593Z,23.40
2018-04-13T02:27:59.316Z,20.27
2018-04-13T02:32:02.822Z,19.23
2018-04-13T02:36:06.441Z,20.57
2018-04-13T02:40:09.963Z,22.77
2018-04-13T02:44:12.857Z,21.80
2018-04-13T02:48:15.620Z,20.90
2018-04-13T02:52:18.525Z,23.87
2018-04-13T02:56:21.303Z,19.67
2018-04-13T03:00:24.123Z,21.53
2018-04-13T03:04:26.885Z,18.33
2018-04-13T03:08:29.685Z,19.37
2018-04-13T03:12:32.398Z,20.47
2018-04-13T03:16:35.249Z,17.60
2018-04-13T03:20:38.883Z,15.13
2018-04-13T03:24:41.661Z,19.90
2018-04-13T03:28:45.174Z,16.60
2018-04-13T03:32:48.676Z,19.27
2018-04-13T03:36:51.452Z,20.47
2018-04-13T03:40:54.198Z,23.13
2018-04-13T03:44:57.021Z,20.20
2018-04-13T03:49:00.590Z,21.50
2018-04-13T03:53:04.150Z,21.30
2018-04-13T03:57:06.899Z,20.53
2018-04-13T04:01:10.626Z,19.60
2018-04-13T04:05:13.420Z,17.97
2018-04-13T04:09:16.384Z,17.43
2018-04-13T04:13:19.130Z,18.77
2018-04-13T04:17:21.868Z,24.30
2018-04-13T04:21:36.499Z,24.60
2018-04-13T04:25:44.926Z,32.57
2018-04-13T04:29:51.942Z,32.40
2018-04-13T04:33:55.704Z,32.77
2018-04-13T04:37:58.756Z,31.00
2018-04-13T04:42:01.819Z,29.43
2018-04-13T04:46:05.500Z,32.97
2018-04-13T04:50:08.262Z,31.07
2018-04-13T04:54:11.123Z,27.20
2018-04-13T04:58:13.979Z,29.47
2018-04-13T05:02:16.805Z,32.07
2018-04-13T05:06:19.711Z,27.20
2018-04-13T05:10:22.461Z,31.80
2018-04-13T05:14:25.323Z,30.43
2018-04-13T05:18:28.155Z,27.87
2018-04-13T05:22:30.978Z,25.97
2018-04-13T05:26:33.743Z,29.37
2018-04-13T05:30:36.503Z,31.57
2018-04-13T05:34:39.543Z,33.90
2018-04-13T05:38:42.373Z,29.03
2018-04-13T05:42:45.249Z,25.83
2018-04-13T05:46:48.250Z,25.87
2018-04-13T05:50:51.037Z,27.30
2018-04-13T05:54:54.653Z,34.87
2018-04-13T05:58:58.167Z,34.57
2018-04-13T06:03:01.691Z,41.33
2018-04-13T06:07:04.553Z,50.00
2018-04-13T06:11:08.535Z,32.70
2018-04-13T06:15:12.227Z,26.93
2018-04-13T06:19:14.997Z,23.43
2018-04-13T06:23:17.839Z,15.80
2018-04-13T06:27:20.583Z,12.17
2018-04-13T06:31:23.627Z,11.77
2018-04-13T06:35:28.824Z,13.57
2018-04-13T06:39:33.357Z,11.60
2018-04-13T06:43:36.200Z,9.87
2018-04-13T06:47:39.694Z,8.60
2018-04-13T06:51:42.461Z,10.20
2018-04-13T06:55:45.194Z,9.33
2018-04-13T06:59:48.169Z,6.63
2018-04-13T07:03:50.929Z,7.30
2018-04-13T07:07:53.731Z,6.47
2018-04-13T07:11:56.853Z,4.83
2018-04-13T07:16:00.421Z,4.43
2018-04-13T07:20:03.229Z,4.70
2018-04-13T07:24:06.318Z,4.50
2018-04-13T07:28:09.789Z,4.20
2018-04-13T07:32:13.593Z,3.87
2018-04-13T07:36:17.761Z,4.80
2018-04-13T07:40:20.192Z,4.53
2018-04-13T07:44:23.068Z,3.73
2018-04-13T07:48:25.814Z,3.77
2018-04-13T07:52:28.625Z,4.10
2018-04-13T07:56:31.351Z,4.63
2018-04-13T08:00:34.739Z,4.47
2018-04-13T08:04:37.008Z,4.40
2018-04-13T08:08:39.786Z,4.27
2018-04-13T08:12:42.537Z,3.10
2018-04-13T08:16:46.109Z,3.40
2018-04-13T08:20:48.825Z,3.00
2018-04-13T08:24:51.645Z,3.10
2018-04-13T08:28:54.566Z,2.20
2018-04-13T08:32:58.055Z,3.30
2018-04-13T08:37:00.852Z,2.40
2018-04-13T08:41:03.600Z,2.10
2018-04-13T08:45:06.425Z,1.67
2018-04-13T08:49:09.395Z,2.50
2018-04-13T08:53:11.994Z,2.97
2018-04-13T08:57:15.441Z,2.33
2018-04-13T09:01:19.128Z,2.70
2018-04-13T09:05:21.972Z,2.90
2018-04-13T09:13:40.170Z,2.20
2018-04-13T09:17:44.315Z,3.10
2018-04-13T09:21:47.107Z,3.30
2018-04-13T09:25:49.979Z,2.80
2018-04-13T09:29:52.673Z,1.90
2018-04-13T09:33:55.463Z,1.53
2018-04-13T09:37:58.371Z,1.90
2018-04-13T09:42:01.118Z,1.80
2018-04-13T09:46:03.978Z,1.83
2018-04-13T09:50:07.473Z,1.50
2018-04-13T09:54:10.329Z,1.60
2018-04-13T09:58:13.056Z,1.40
2018-04-13T10:02:21.126Z,1.77
2018-04-13T10:06:24.813Z,1.50
2018-04-13T10:10:27.584Z,1.40
2018-04-13T10:14:30.459Z,1.57
2018-04-13T10:18:33.198Z,1.47
2018-04-13T10:22:35.961Z,1.37
2018-04-13T10:26:39.518Z,1.07
2018-04-13T10:30:42.286Z,1.10
2018-04-13T10:34:45.265Z,1.90
2018-04-13T10:38:48.144Z,1.40
2018-04-13T10:42:51.021Z,1.27
2018-04-13T10:46:53.741Z,1.43
2018-04-13T10:50:56.513Z,1.10
2018-04-13T10:54:59.273Z,1.40
2018-04-13T10:59:02.082Z,1.10
2018-04-13T11:03:04.947Z,1.20
2018-04-13T11:07:07.704Z,1.17
2018-04-13T11:11:10.544Z,1.40
2018-04-13T11:15:13.417Z,1.43
2018-04-13T11:19:16.922Z,1.10
2018-04-13T11:23:19.677Z,1.07
2018-04-13T11:27:23.015Z,1.00
2018-04-13T11:31:25.747Z,1.00
2018-04-13T11:35:28.523Z,1.10
2018-04-13T11:39:32.372Z,1.03
2018-04-13T11:43:35.250Z,0.90
2018-04-13T11:47:39.402Z,1.40
2018-04-13T11:51:42.120Z,1.03
2018-04-13T11:55:45.049Z,1.30
2018-04-13T11:59:47.815Z,1.30
2018-04-13T12:03:50.977Z,0.90
2018-04-13T12:07:54.510Z,1.30
2018-04-13T12:12:01.453Z,1.53
2018-04-13T12:16:07.806Z,1.17
2018-04-13T12:20:11.482Z,1.10
2018-04-13T12:24:18.394Z,1.20
2018-04-13T12:28:21.524Z,1.00
2018-04-13T12:32:24.325Z,0.90
2018-04-13T12:36:27.948Z,1.27
2018-04-13T12:40:30.720Z,0.80
2018-04-13T12:44:33.543Z,1.00
2018-04-13T12:48:36.249Z,1.10
2018-04-13T12:52:39.039Z,0.67
2018-04-13T12:56:42.168Z,1.20
2018-04-13T13:00:45.936Z,1.00
2018-04-13T13:04:48.655Z,0.70
2018-04-13T13:08:51.782Z,1.00
2018-04-13T13:12:54.548Z,0.90
2018-04-13T13:16:57.876Z,0.80
2018-04-13T13:21:01.788Z,0.90
2018-04-13T13:25:04.683Z,0.93
2018-04-13T13:29:11.386Z,1.20
2018-04-13T13:33:14.147Z,0.70
2018-04-13T13:37:16.990Z,0.90
2018-04-13T13:41:19.738Z,1.00
2018-04-13T13:45:22.489Z,0.60
2018-04-13T13:49:25.555Z,1.33
2018-04-13T13:53:28.334Z,0.80
2018-04-13T13:57:31.199Z,1.00
2018-04-13T14:01:34.031Z,0.70
2018-04-13T14:05:37.641Z,0.80
2018-04-13T14:09:41.133Z,0.83
2018-04-13T14:13:43.871Z,0.70
2018-04-13T14:17:46.653Z,0.80
2018-04-13T14:21:49.432Z,0.80
2018-04-13T14:25:52.628Z,0.90
2018-04-13T14:29:55.712Z,0.97
2018-04-13T14:33:58.537Z,0.70
2018-04-13T14:38:01.338Z,0.77
2018-04-13T14:42:04.852Z,0.63
2018-04-13T14:46:07.634Z,0.77
2018-04-13T14:50:11.265Z,0.67
2018-04-13T14:54:14.172Z,0.77
2018-04-13T14:58:17.348Z,0.90
2018-04-13T15:02:20.186Z,0.70
2018-04-13T15:06:23.723Z,0.87
2018-04-13T15:10:26.745Z,0.77
2018-04-13T15:14:29.804Z,0.70
2018-04-13T15:18:32.733Z,1.00
2018-04-13T15:22:36.475Z,0.83
2018-04-13T15:26:39.457Z,1.00
2018-04-13T15:30:42.376Z,1.00
2018-04-13T15:34:46.049Z,0.60
2018-04-13T15:38:49.660Z,0.50
2018-04-13T15:42:53.284Z,0.60
2018-04-13T15:46:56.343Z,0.60
2018-04-13T15:50:59.200Z,0.70
2018-04-13T15:55:02.694Z,1.33
2018-04-13T15:59:06.952Z,0.67
2018-04-13T16:03:09.994Z,0.67
2018-04-13T16:07:12.720Z,0.70
2018-04-13T16:11:15.940Z,0.73
2018-04-13T16:15:18.743Z,0.93
2018-04-13T16:19:22.357Z,0.83
2018-04-13T16:23:26.055Z,1.17
2018-04-13T16:27:28.837Z,0.93
2018-04-13T16:31:31.598Z,0.70
2018-04-13T16:35:34.354Z,0.70
2018-04-13T16:39:37.214Z,0.60
2018-04-13T16:43:40.040Z,0.80
2018-04-13T16:47:43.564Z,0.87
2018-04-13T16:51:46.380Z,1.00
2018-04-13T16:55:49.132Z,0.90
2018-04-13T16:59:51.868Z,0.90
2018-04-13T17:03:55.378Z,0.60
2018-04-13T17:08:00.146Z,0.83
2018-04-13T17:12:02.987Z,0.80
2018-04-13T17:16:06.621Z,0.60
2018-04-13T17:20:09.493Z,0.80
2018-04-13T17:24:12.537Z,0.60
2018-04-13T17:28:15.585Z,0.60
2018-04-13T17:32:18.601Z,0.93
2018-04-13T17:36:21.608Z,0.93
2018-04-13T17:40:24.563Z,1.47
2018-04-13T17:44:28.245Z,1.10
2018-04-13T17:48:31.257Z,1.10
2018-04-13T17:52:34.136Z,1.37
2018-04-13T17:56:36.858Z,3.90
2018-04-13T18:00:43.209Z,9.30
2018-04-13T18:04:46.966Z,37.40
2018-04-13T18:08:49.697Z,34.67
2018-04-13T18:12:52.538Z,11.20
2018-04-13T18:16:55.484Z,3.80
2018-04-13T18:20:59.005Z,2.30
2018-04-13T18:25:01.896Z,1.50
2018-04-13T18:29:05.398Z,2.37
2018-04-13T18:33:09.019Z,2.70
2018-04-13T18:37:12.662Z,1.83
2018-04-13T18:41:15.584Z,1.70
2018-04-13T18:45:20.538Z,2.17
2018-04-13T18:49:24.076Z,1.70
2018-04-13T18:53:26.821Z,1.90
2018-04-13T18:57:29.836Z,1.80
2018-04-13T19:01:32.623Z,1.70
2018-04-13T19:05:36.186Z,2.53
2018-04-13T19:09:38.965Z,2.50
2018-04-13T19:13:41.770Z,1.87
2018-04-13T19:17:44.653Z,2.07
2018-04-13T19:21:47.416Z,1.50
2018-04-13T19:25:51.005Z,1.70
2018-04-13T19:29:53.955Z,1.73
2018-04-13T19:33:56.681Z,1.60
2018-04-13T19:37:59.453Z,1.80
2018-04-13T19:42:02.495Z,1.50
2018-04-13T19:46:05.314Z,1.50
2018-04-13T19:50:08.880Z,1.77
2018-04-13T19:54:12.024Z,2.13
2018-04-13T19:58:15.133Z,1.70
2018-04-13T20:02:18.326Z,1.47
2018-04-13T20:06:21.826Z,1.60
2018-04-13T20:10:25.661Z,2.47
2018-04-13T20:14:31.856Z,2.77
2018-04-13T20:18:35.041Z,2.53
2018-04-13T20:22:38.562Z,3.03
2018-04-13T20:26:43.148Z,5.03
2018-04-13T20:30:45.888Z,2.50
2018-04-13T20:34:48.586Z,2.63
2018-04-13T20:38:51.619Z,2.30
2018-04-13T20:42:55.429Z,2.83
2018-04-13T20:46:59.271Z,3.67
2018-04-13T20:51:03.272Z,3.30
2018-04-13T20:55:06.236Z,2.60
2018-04-13T20:59:09.614Z,2.33
2018-04-13T21:03:12.386Z,3.20
2018-04-13T21:07:15.891Z,2.87
2018-04-13T21:11:20.159Z,2.63
2018-04-13T21:15:22.963Z,2.73
2018-04-13T21:19:25.948Z,3.13
2018-04-13T21:23:29.724Z,4.57
2018-04-13T21:27:32.679Z,3.90
2018-04-13T21:31:35.414Z,3.43
2018-04-13T21:35:38.254Z,2.63
2018-04-13T21:39:41.737Z,2.47
2018-04-13T21:43:45.282Z,3.00
2018-04-13T21:47:48.064Z,3.83
2018-04-13T21:51:50.898Z,2.60
2018-04-13T21:55:53.627Z,2.47
2018-04-13T21:59:56.433Z,2.20
2018-04-13T22:03:59.167Z,2.50
2018-04-13T22:08:02.733Z,2.20
2018-04-13T22:16:34.215Z,2.50
2018-04-13T22:20:37.749Z,2.30
2018-04-13T22:24:41.342Z,2.90
2018-04-13T22:28:44.140Z,2.70
2018-04-13T22:32:46.906Z,2.80
2018-04-13T22:36:49.699Z,2.90
2018-04-13T22:40:52.430Z,2.47
2018-04-13T22:44:55.153Z,2.43
2018-04-13T22:48:57.903Z,2.57
2018-04-13T22:53:00.660Z,3.27
2018-04-13T22:57:03.462Z,2.77
2018-04-13T23:01:06.180Z,2.43
2018-04-13T23:05:08.917Z,2.87
2018-04-13T23:09:11.951Z,3.27
2018-04-13T23:13:14.685Z,2.80
2018-04-13T23:17:17.516Z,2.70
2018-04-13T23:21:20.226Z,2.27
2018-04-13T23:25:23.175Z,2.33
2018-04-13T23:29:25.942Z,2.23
2018-04-13T23:33:29.692Z,2.50
2018-04-13T23:37:32.407Z,2.67
2018-04-13T23:41:36.306Z,2.90
2018-04-13T23:45:39.799Z,2.13
2018-04-13T23:49:43.389Z,2.87
2018-04-13T23:53:46.121Z,1.90
2018-04-13T23:57:49.704Z,2.67
